Terminal Aerodrome Forecast
Issued by NWS

Home | Current Version | Previous Version | Text Only | Print | Product List | Glossary On
Versions: 1 2 3 4 5 6 7 8 9 10 11 12 13 14 15 16 17 18 19 20 21 22 23 24
000
FTUS41 KBGM 030500
TAFITH
TAF
KITH 030521Z 0306/0406 VRB03KT 5SM BR OVC006
      TEMPO 0306/0310 1 1/2SM BR SCT006 BKN015
     FM031300 31008KT P6SM SCT035
      TEMPO 0313/0315 BKN015
     FM040000 16005KT P6SM BKN035=

USA.gov is the U.S. government's official web portal to all federal, state and local government web resources and services.